createdAt,value
2017-11-05T00:00:05.999Z,98253
2017-11-05T00:02:34.075Z,98254
2017-11-05T00:05:02.167Z,98250
2017-11-05T00:07:30.239Z,98242
2017-11-05T00:09:58.315Z,98251
2017-11-05T00:12:27.324Z,98244
2017-11-05T00:14:56.167Z,98237
2017-11-05T00:17:24.288Z,98235
2017-11-05T00:19:53.163Z,98233
2017-11-05T00:22:21.236Z,98226
2017-11-05T00:24:49.324Z,98234
2017-11-05T00:27:18.171Z,98224
2017-11-05T00:29:46.274Z,98222
2017-11-05T00:32:14.348Z,98220
2017-11-05T00:34:42.424Z,98210
2017-11-05T00:37:11.266Z,98217
2017-11-05T00:39:40.103Z,98216
2017-11-05T00:42:08.940Z,98220
2017-11-05T00:44:37.024Z,98208
2017-11-05T00:47:05.132Z,98208
2017-11-05T00:49:33.205Z,98206
2017-11-05T00:52:01.368Z,98211
2017-11-05T00:54:29.447Z,98203
2017-11-05T00:56:57.679Z,98213
2017-11-05T00:59:25.756Z,98212
2017-11-05T01:01:53.823Z,98211
2017-11-05T01:04:22.667Z,98217
2017-11-05T01:06:51.576Z,98205
2017-11-05T01:09:20.420Z,98203
2017-11-05T01:11:48.491Z,98190
2017-11-05T01:14:16.568Z,98188
2017-11-05T01:16:44.644Z,98188
2017-11-05T01:19:12.728Z,98189
2017-11-05T01:21:40.800Z,98181
2017-11-05T01:24:08.884Z,98185
2017-11-05T01:26:36.949Z,98179
2017-11-05T01:29:05.028Z,98191
2017-11-05T01:31:33.104Z,98193
2017-11-05T01:34:01.180Z,98187
2017-11-05T01:36:30.011Z,98180
2017-11-05T01:38:58.086Z,98179
2017-11-05T01:41:26.923Z,98177
2017-11-05T01:43:55.005Z,98189
2017-11-05T01:46:23.080Z,98185
2017-11-05T01:48:51.931Z,98171
2017-11-05T01:51:20.003Z,98175
2017-11-05T01:53:48.081Z,98165
2017-11-05T01:56:16.150Z,98156
2017-11-05T01:58:44.226Z,98147
2017-11-05T02:01:12.313Z,98143
2017-11-05T02:03:40.446Z,98150
2017-11-05T02:06:08.528Z,98139
2017-11-05T02:08:36.592Z,98139
2017-11-05T02:11:05.540Z,98142
2017-11-05T02:13:33.607Z,98146
2017-11-05T02:16:01.716Z,98135
2017-11-05T02:18:29.807Z,98122
2017-11-05T02:20:57.888Z,98117
2017-11-05T02:23:25.946Z,98108
2017-11-05T02:25:54.097Z,98103
2017-11-05T02:28:22.930Z,98111
2017-11-05T02:30:51.012Z,98111
2017-11-05T02:33:19.087Z,98099
2017-11-05T02:35:47.176Z,98092
2017-11-05T02:38:15.272Z,98088
2017-11-05T02:40:43.332Z,98076
2017-11-05T02:43:12.245Z,98084
2017-11-05T02:45:41.089Z,98081
2017-11-05T02:48:09.151Z,98073
2017-11-05T02:50:37.236Z,98086
2017-11-05T02:53:05.303Z,98084
2017-11-05T02:55:33.401Z,98082
2017-11-05T02:58:02.564Z,98086
2017-11-05T03:00:30.642Z,98099
2017-11-05T03:02:58.716Z,98105
2017-11-05T03:05:26.799Z,98108
2017-11-05T03:07:54.876Z,98095
2017-11-05T03:10:22.951Z,98099
2017-11-05T03:12:51.020Z,98101
2017-11-05T03:15:19.104Z,98094
2017-11-05T03:17:47.166Z,98097
2017-11-05T03:20:15.260Z,98099
2017-11-05T03:22:44.092Z,98097
2017-11-05T03:25:12.189Z,98087
2017-11-05T03:27:40.263Z,98093
2017-11-05T03:30:08.349Z,98090
2017-11-05T03:32:36.414Z,98094
2017-11-05T03:35:04.492Z,98098
2017-11-05T03:37:32.571Z,98097
2017-11-05T03:40:00.644Z,98083
2017-11-05T03:42:28.720Z,98091
2017-11-05T03:44:56.802Z,98085
2017-11-05T03:47:25.643Z,98086
2017-11-05T03:49:53.728Z,98087
2017-11-05T03:52:21.799Z,98083
2017-11-05T03:54:49.896Z,98077
2017-11-05T03:57:17.967Z,98085
2017-11-05T03:59:46.050Z,98082
2017-11-05T04:02:14.113Z,98092
2017-11-05T04:04:42.192Z,98082
2017-11-05T04:07:10.256Z,98073
2017-11-05T04:09:38.335Z,98059
2017-11-05T04:12:06.426Z,98073
2017-11-05T04:14:35.288Z,98065
2017-11-05T04:17:03.363Z,98071
2017-11-05T04:19:31.439Z,98068
2017-11-05T04:21:59.518Z,98071
2017-11-05T04:24:27.591Z,98067
2017-11-05T04:26:55.676Z,98069
2017-11-05T04:29:24.548Z,98062
2017-11-05T04:31:52.632Z,98053
2017-11-05T04:34:20.700Z,98059
2017-11-05T04:36:48.775Z,98044
2017-11-05T04:39:16.849Z,98037
2017-11-05T04:41:44.947Z,98045
2017-11-05T04:44:13.012Z,98041
2017-11-05T04:46:41.852Z,98042
2017-11-05T04:49:09.933Z,98041
2017-11-05T04:51:38.015Z,98038
2017-11-05T04:54:06.095Z,98037
2017-11-05T04:56:34.180Z,98030
2017-11-05T04:59:03.011Z,98036
2017-11-05T05:01:31.083Z,98033
2017-11-05T05:03:59.911Z,98033
2017-11-05T05:06:27.979Z,98027
2017-11-05T05:08:56.056Z,98045
2017-11-05T05:11:24.129Z,98037
2017-11-05T05:13:52.198Z,98037
2017-11-05T05:16:20.289Z,98030
2017-11-05T05:18:48.356Z,98027
2017-11-05T05:21:16.437Z,98017
2017-11-05T05:23:45.272Z,98025
2017-11-05T05:26:13.345Z,98025
2017-11-05T05:28:42.184Z,98031
2017-11-05T05:31:10.259Z,98027
2017-11-05T05:33:38.332Z,98007
2017-11-05T05:36:06.408Z,98017
2017-11-05T05:38:35.250Z,98033
2017-11-05T05:41:04.088Z,98044
2017-11-05T05:43:32.920Z,98042
2017-11-05T05:46:00.999Z,98050
2017-11-05T05:48:29.876Z,98059
2017-11-05T05:50:57.945Z,98053
2017-11-05T05:53:26.008Z,98055
2017-11-05T05:55:54.091Z,98057
2017-11-05T05:58:22.147Z,98062
2017-11-05T06:00:50.987Z,98065
2017-11-05T06:03:19.060Z,98064
2017-11-05T06:05:47.141Z,98054
2017-11-05T06:08:15.208Z,98067
2017-11-05T06:10:43.284Z,98058
2017-11-05T06:13:11.356Z,98063
2017-11-05T06:15:39.432Z,98059
2017-11-05T06:18:07.499Z,98052
2017-11-05T06:20:35.579Z,98053
2017-11-05T06:23:03.657Z,98057
2017-11-05T06:25:31.740Z,98061
2017-11-05T06:27:59.810Z,98051
2017-11-05T06:30:27.892Z,98049
2017-11-05T06:32:56.740Z,98051
2017-11-05T06:35:24.820Z,98038
2017-11-05T06:37:52.894Z,98041
2017-11-05T06:40:20.980Z,98027
2017-11-05T06:42:49.051Z,98031
2017-11-05T06:45:17.140Z,98028
2017-11-05T06:47:45.199Z,98038
2017-11-05T06:50:13.284Z,98030
2017-11-05T06:52:41.347Z,98041
2017-11-05T06:55:09.432Z,98036
2017-11-05T06:57:37.495Z,98036
2017-11-05T07:00:05.615Z,98023
2017-11-05T07:02:33.684Z,98006
2017-11-05T07:05:01.769Z,98009
2017-11-05T07:07:29.844Z,98005
2017-11-05T07:09:58.677Z,98012
2017-11-05T07:12:26.764Z,97997
2017-11-05T07:14:55.613Z,98005
2017-11-05T07:17:23.684Z,98001
2017-11-05T07:19:51.764Z,98007
2017-11-05T07:22:19.851Z,97996
2017-11-05T07:24:47.987Z,97997
2017-11-05T07:27:16.084Z,97998
2017-11-05T07:29:44.155Z,98000
2017-11-05T07:32:12.244Z,97994
2017-11-05T07:34:40.322Z,97996
2017-11-05T07:37:08.403Z,97979
2017-11-05T07:39:36.480Z,97988
2017-11-05T07:42:05.331Z,97981
2017-11-05T07:44:33.411Z,97978
2017-11-05T07:47:01.497Z,97976
2017-11-05T07:49:29.572Z,97981
2017-11-05T07:51:57.680Z,97970
2017-11-05T07:54:26.520Z,97958
2017-11-05T07:56:54.591Z,97944
2017-11-05T07:59:22.668Z,97941
2017-11-05T08:01:50.752Z,97940
2017-11-05T08:04:18.824Z,97934
2017-11-05T08:06:46.908Z,97941
2017-11-05T08:09:14.980Z,97936
2017-11-05T08:11:43.063Z,97931
2017-11-05T08:14:11.907Z,97926
2017-11-05T08:16:40.012Z,97933
2017-11-05T08:19:08.085Z,97931
2017-11-05T08:21:36.163Z,97930
2017-11-05T08:24:04.238Z,97930
2017-11-05T08:26:32.328Z,97937
2017-11-05T08:29:01.173Z,97927
2017-11-05T08:31:29.260Z,97930
2017-11-05T08:33:57.331Z,97926
2017-11-05T08:36:25.414Z,97933
2017-11-05T08:38:53.479Z,97931
2017-11-05T08:41:21.575Z,97927
2017-11-05T08:43:50.428Z,97934
2017-11-05T08:46:18.516Z,97936
2017-11-05T08:48:46.608Z,97949
2017-11-05T08:51:15.484Z,97937
2017-11-05T08:53:43.556Z,97940
2017-11-05T08:56:11.640Z,97940
2017-11-05T08:58:40.479Z,97936
2017-11-05T09:01:08.571Z,97936
2017-11-05T09:03:36.648Z,97932
2017-11-05T09:06:04.745Z,97929
2017-11-05T09:08:33.717Z,97920
2017-11-05T09:11:01.829Z,97909
2017-11-05T09:13:30.672Z,97921
2017-11-05T09:15:58.760Z,97929
2017-11-05T09:18:26.843Z,97924
2017-11-05T09:20:54.936Z,97926
2017-11-05T09:23:23.792Z,97928
2017-11-05T09:25:51.879Z,97928
2017-11-05T09:28:19.978Z,97928
2017-11-05T09:30:48.824Z,97933
2017-11-05T09:33:16.908Z,97927
2017-11-05T09:35:45.009Z,97935
2017-11-05T09:38:13.120Z,97943
2017-11-05T09:40:41.201Z,97938
2017-11-05T09:43:09.299Z,97930
2017-11-05T09:45:37.392Z,97930
2017-11-05T09:48:06.251Z,97918
2017-11-05T09:50:34.348Z,97909
2017-11-05T09:53:02.434Z,97912
2017-11-05T09:55:31.304Z,97905
2017-11-05T09:57:59.392Z,97904
2017-11-05T10:00:28.248Z,97901
2017-11-05T10:02:56.341Z,97900
2017-11-05T10:05:24.424Z,97898
2017-11-05T10:07:52.509Z,97902
2017-11-05T10:10:21.371Z,97897
2017-11-05T10:12:49.466Z,97900
2017-11-05T10:15:18.319Z,97896
2017-11-05T10:17:46.417Z,97895
2017-11-05T10:20:14.493Z,97896
2017-11-05T10:22:43.371Z,97900
2017-11-05T10:25:11.447Z,97907
2017-11-05T10:27:39.548Z,97904
2017-11-05T10:30:08.402Z,97905
2017-11-05T10:32:36.509Z,97891
2017-11-05T10:35:05.356Z,97906
2017-11-05T10:37:33.444Z,97897
2017-11-05T10:40:01.528Z,97899
2017-11-05T10:42:29.627Z,97896
2017-11-05T10:44:57.727Z,97889
2017-11-05T10:47:25.831Z,97895
2017-11-05T10:49:53.917Z,97888
2017-11-05T10:52:22.016Z,97884
2017-11-05T10:54:50.868Z,97879
2017-11-05T10:57:18.964Z,97881
2017-11-05T10:59:47.042Z,97886
2017-11-05T11:02:15.912Z,97882
2017-11-05T11:04:43.987Z,97888
2017-11-05T11:07:12.078Z,97882
2017-11-05T11:09:40.933Z,97872
2017-11-05T11:12:09.019Z,97882
2017-11-05T11:14:37.105Z,97880
2017-11-05T11:17:05.255Z,97873
2017-11-05T11:19:33.334Z,97883
2017-11-05T11:22:01.420Z,97882
2017-11-05T11:24:29.500Z,97881
2017-11-05T11:26:57.595Z,97888
2017-11-05T11:29:25.675Z,97890
2017-11-05T11:31:53.763Z,97894
2017-11-05T11:34:21.858Z,97897
2017-11-05T11:36:49.937Z,97901
2017-11-05T11:39:18.008Z,97900
2017-11-05T11:41:46.097Z,97903
2017-11-05T11:44:14.178Z,97897
2017-11-05T11:46:42.270Z,97902
2017-11-05T11:49:11.111Z,97908
2017-11-05T11:51:39.205Z,97915
2017-11-05T11:54:07.283Z,97908
2017-11-05T11:56:35.381Z,97904
2017-11-05T11:59:04.224Z,97902
2017-11-05T12:01:32.337Z,97904
2017-11-05T12:04:01.183Z,97899
2017-11-05T12:06:29.268Z,97894
2017-11-05T12:08:57.351Z,97893
2017-11-05T12:11:25.447Z,97892
2017-11-05T12:13:54.382Z,97895
2017-11-05T12:16:22.465Z,97890
2017-11-05T12:18:50.552Z,97884
2017-11-05T12:21:18.645Z,97879
2017-11-05T12:23:46.732Z,97879
2017-11-05T12:26:15.596Z,97875
2017-11-05T12:28:43.755Z,97874
2017-11-05T12:31:11.832Z,97881
2017-11-05T12:33:39.920Z,97874
2017-11-05T12:36:08.055Z,97867
2017-11-05T12:38:36.954Z,97868
2017-11-05T12:41:05.057Z,97871
2017-11-05T12:43:33.207Z,97862
2017-11-05T12:46:01.290Z,97863
2017-11-05T12:48:29.384Z,97876
2017-11-05T12:50:57.506Z,97874
2017-11-05T12:53:25.587Z,97878
2017-11-05T12:55:54.439Z,97887
2017-11-05T12:58:23.323Z,97886
2017-11-05T13:00:52.175Z,97888
2017-11-05T13:03:20.304Z,97904
2017-11-05T13:05:48.393Z,97897
2017-11-05T13:08:16.476Z,97913
2017-11-05T13:10:45.327Z,97920
2017-11-05T13:13:14.194Z,97928
2017-11-05T13:15:42.333Z,97939
2017-11-05T13:18:11.180Z,97931
2017-11-05T13:20:40.148Z,97937
2017-11-05T13:23:08.228Z,97949
2017-11-05T13:25:36.339Z,97959
2017-11-05T13:28:04.423Z,97958
2017-11-05T13:30:32.506Z,97957
2017-11-05T13:33:01.349Z,97962
2017-11-05T13:35:29.415Z,97972
2017-11-05T13:37:57.504Z,97977
2017-11-05T13:40:25.576Z,97988
2017-11-05T13:42:54.425Z,97991
2017-11-05T13:45:22.519Z,97996
2017-11-05T13:47:50.608Z,98007
2017-11-05T13:50:19.449Z,98011
2017-11-05T13:52:48.295Z,98032
2017-11-05T13:55:16.868Z,98037
2017-11-05T13:57:44.934Z,98049
2017-11-05T14:00:13.013Z,98054
2017-11-05T14:02:41.094Z,98061
2017-11-05T14:05:09.993Z,98072
2017-11-05T14:07:38.836Z,98065
2017-11-05T14:10:06.951Z,98074
2017-11-05T14:12:35.843Z,98074
2017-11-05T14:15:04.671Z,98087
2017-11-05T14:17:32.759Z,98096
2017-11-05T14:20:00.817Z,98095
2017-11-05T14:22:28.887Z,98103
2017-11-05T14:24:57.725Z,98102
2017-11-05T14:27:25.804Z,98106
2017-11-05T14:29:53.871Z,98120
2017-11-05T14:32:21.948Z,98131
2017-11-05T14:34:50.835Z,98121
2017-11-05T14:37:18.928Z,98146
2017-11-05T14:39:47.831Z,98156
2017-11-05T14:42:15.903Z,98158
2017-11-05T14:44:43.992Z,98164
2017-11-05T14:47:12.066Z,98177
2017-11-05T14:49:40.912Z,98173
2017-11-05T14:52:08.972Z,98177
2017-11-05T14:54:37.056Z,98186
2017-11-05T14:57:05.131Z,98193
2017-11-05T14:59:33.976Z,98196
2017-11-05T15:02:02.068Z,98207
2017-11-05T15:04:30.153Z,98210
2017-11-05T15:06:58.237Z,98226
2017-11-05T15:09:26.312Z,98231
2017-11-05T15:11:54.385Z,98232
2017-11-05T15:14:22.460Z,98240
2017-11-05T15:16:51.366Z,98244
2017-11-05T15:19:20.220Z,98255
2017-11-05T15:21:48.296Z,98262
2017-11-05T15:24:16.471Z,98273
2017-11-05T15:26:44.539Z,98280
2017-11-05T15:29:12.671Z,98290
2017-11-05T15:31:40.774Z,98291
2017-11-05T15:34:08.924Z,98296
2017-11-05T15:36:36.983Z,98301
2017-11-05T15:39:05.066Z,98289
2017-11-05T15:41:33.935Z,98292
2017-11-05T15:44:02.031Z,98304
2017-11-05T15:46:30.107Z,98314
2017-11-05T15:48:58.246Z,98309
2017-11-05T15:51:27.084Z,98321
2017-11-05T15:53:55.151Z,98322
2017-11-05T15:56:23.220Z,98325
2017-11-05T15:58:51.316Z,98330
2017-11-05T16:01:19.434Z,98332
2017-11-05T16:03:48.273Z,98326
2017-11-05T16:06:16.344Z,98335
2017-11-05T16:08:44.491Z,98338
2017-11-05T16:11:12.593Z,98339
2017-11-05T16:13:40.700Z,98341
2017-11-05T16:16:08.772Z,98345
2017-11-05T16:18:36.935Z,98339
2017-11-05T16:21:05.079Z,98339
2017-11-05T16:23:33.185Z,98339
2017-11-05T16:26:01.276Z,98348
2017-11-05T16:28:30.197Z,98352
2017-11-05T16:30:58.292Z,98351
2017-11-05T16:33:26.380Z,98363
2017-11-05T16:35:54.472Z,98368
2017-11-05T16:38:22.632Z,98370
2017-11-05T16:40:50.751Z,98387
2017-11-05T16:43:18.852Z,98379
2017-11-05T16:45:47.008Z,98389
2017-11-05T16:48:15.112Z,98391
2017-11-05T16:50:43.246Z,98407
2017-11-05T16:53:11.354Z,98409
2017-11-05T16:55:39.496Z,98413
2017-11-05T16:58:07.613Z,98412
2017-11-05T17:00:35.760Z,98417
2017-11-05T17:03:03.859Z,98431
2017-11-05T17:05:31.956Z,98433
2017-11-05T17:08:00.834Z,98442
2017-11-05T17:10:28.933Z,98450
2017-11-05T17:12:57.801Z,98456
2017-11-05T17:15:25.986Z,98452
2017-11-05T17:17:54.070Z,98466
2017-11-05T17:20:22.953Z,98462
2017-11-05T17:22:51.862Z,98477
2017-11-05T17:25:20.703Z,98485
2017-11-05T17:27:48.758Z,98484
2017-11-05T17:30:16.841Z,98508
2017-11-05T17:32:44.899Z,98505
2017-11-05T17:35:13.754Z,98521
2017-11-05T17:37:42.592Z,98521
2017-11-05T17:40:10.725Z,98521
2017-11-05T17:42:39.748Z,98523
2017-11-05T17:45:07.833Z,98528
2017-11-05T17:47:35.895Z,98535
2017-11-05T17:50:04.756Z,98538
2017-11-05T17:52:32.887Z,98544
2017-11-05T17:55:03.062Z,98552
2017-11-05T17:57:32.071Z,98551
2017-11-05T18:00:00.153Z,98550
2017-11-05T18:02:28.220Z,98553
2017-11-05T18:04:56.303Z,98550
2017-11-05T18:07:24.448Z,98561
2017-11-05T18:09:52.525Z,98562
2017-11-05T18:12:20.607Z,98564
2017-11-05T18:14:48.751Z,98567
2017-11-05T18:17:17.596Z,98581
2017-11-05T18:19:45.783Z,98575
2017-11-05T18:22:13.849Z,98571
2017-11-05T18:24:41.930Z,98574
2017-11-05T18:27:10.048Z,98577
2017-11-05T18:29:38.940Z,98572
2017-11-05T18:32:07.029Z,98578
2017-11-05T18:34:35.910Z,98577
2017-11-05T18:37:04.032Z,98581
2017-11-05T18:39:32.103Z,98587
2017-11-05T18:42:00.231Z,98579
2017-11-05T18:44:28.316Z,98579
2017-11-05T18:46:56.456Z,98591
2017-11-05T18:49:25.356Z,98586
2017-11-05T18:51:53.470Z,98589
2017-11-05T18:54:21.546Z,98597
2017-11-05T18:56:49.681Z,98594
2017-11-05T18:59:17.824Z,98605
2017-11-05T19:01:45.946Z,98607
2017-11-05T19:04:14.788Z,98620
2017-11-05T19:06:42.860Z,98613
2017-11-05T19:09:10.991Z,98618
2017-11-05T19:11:39.065Z,98618
2017-11-05T19:14:07.171Z,98630
2017-11-05T19:16:35.244Z,98635
2017-11-05T19:19:03.336Z,98640
2017-11-05T19:21:32.215Z,98640
2017-11-05T19:24:00.300Z,98638
2017-11-05T19:26:29.151Z,98651
2017-11-05T19:28:57.221Z,98652
2017-11-05T19:31:25.297Z,98652
2017-11-05T19:33:53.372Z,98655
2017-11-05T19:36:21.557Z,98666
2017-11-05T19:38:49.803Z,98667
2017-11-05T19:41:17.939Z,98661
2017-11-05T19:43:46.807Z,98668
2017-11-05T19:46:14.941Z,98667
2017-11-05T19:48:43.774Z,98674
2017-11-05T19:51:11.904Z,98677
2017-11-05T19:53:40.025Z,98684
2017-11-05T19:56:08.949Z,98689
2017-11-05T19:58:37.081Z,98689
2017-11-05T20:01:05.224Z,98697
2017-11-05T20:03:33.357Z,98707
2017-11-05T20:06:02.209Z,98709
2017-11-05T20:08:30.296Z,98713
2017-11-05T20:10:58.440Z,98715
2017-11-05T20:13:26.563Z,98719
2017-11-05T20:15:55.435Z,98717
2017-11-05T20:18:23.552Z,98711
2017-11-05T20:20:52.459Z,98722
2017-11-05T20:23:20.537Z,98728
2017-11-05T20:25:48.768Z,98734
2017-11-05T20:28:17.668Z,98728
2017-11-05T20:30:45.808Z,98723
2017-11-05T20:33:13.949Z,98729
2017-11-05T20:35:42.028Z,98730
2017-11-05T20:38:10.159Z,98735
2017-11-05T20:40:39.051Z,98735
2017-11-05T20:43:07.951Z,98727
2017-11-05T20:45:36.128Z,98737
2017-11-05T20:48:04.259Z,98736
2017-11-05T20:50:32.384Z,98736
2017-11-05T20:53:00.506Z,98725
2017-11-05T20:55:28.585Z,98730
2017-11-05T20:57:56.715Z,98732
2017-11-05T21:00:24.846Z,98733
2017-11-05T21:02:53.751Z,98730
2017-11-05T21:05:22.640Z,98739
2017-11-05T21:07:51.537Z,98734
2017-11-05T21:10:19.697Z,98729
2017-11-05T21:12:48.606Z,98722
2017-11-05T21:15:17.439Z,98736
2017-11-05T21:17:45.579Z,98736
2017-11-05T21:20:13.696Z,98731
2017-11-05T21:22:41.842Z,98730
2017-11-05T21:25:10.745Z,98729
2017-11-05T21:27:38.827Z,98737
2017-11-05T21:30:06.910Z,98747
2017-11-05T21:32:35.059Z,98751
2017-11-05T21:35:03.136Z,98743
2017-11-05T21:37:31.273Z,98749
2017-11-05T21:40:00.107Z,98746
2017-11-05T21:42:28.212Z,98749
2017-11-05T21:44:56.308Z,98751
2017-11-05T21:47:24.444Z,98747
2017-11-05T21:49:52.580Z,98751
2017-11-05T21:52:21.488Z,98745
2017-11-05T21:54:49.606Z,98750
2017-11-05T21:57:18.507Z,98752
2017-11-05T21:59:47.394Z,98755
2017-11-05T22:02:16.245Z,98751
2017-11-05T22:04:44.321Z,98750
2017-11-05T22:07:12.453Z,98767
2017-11-05T22:09:40.551Z,98757
2017-11-05T22:12:08.674Z,98762
2017-11-05T22:14:37.607Z,98756
2017-11-05T22:17:05.679Z,98767
2017-11-05T22:19:33.774Z,98769
2017-11-05T22:22:01.902Z,98778
2017-11-05T22:24:30.042Z,98782
2017-11-05T22:26:58.123Z,98773
2017-11-05T22:29:26.984Z,98781
2017-11-05T22:31:55.060Z,98771
2017-11-05T22:34:23.160Z,98784
2017-11-05T22:36:52.021Z,98791
2017-11-05T22:39:20.108Z,98784
2017-11-05T22:41:48.192Z,98783
2017-11-05T22:44:16.331Z,98787
2017-11-05T22:46:44.407Z,98781
2017-11-05T22:49:12.547Z,98782
2017-11-05T22:51:40.647Z,98786
2017-11-05T22:54:08.796Z,98784
2017-11-05T22:56:36.903Z,98775
2017-11-05T22:59:05.000Z,98774
2017-11-05T23:01:33.071Z,98781
2017-11-05T23:04:01.144Z,98792
2017-11-05T23:06:29.224Z,98783
2017-11-05T23:08:57.319Z,98783
2017-11-05T23:11:25.400Z,98786
2017-11-05T23:13:53.496Z,98779
2017-11-05T23:16:21.583Z,98783
2017-11-05T23:18:49.664Z,98779
2017-11-05T23:21:17.753Z,98796
2017-11-05T23:23:45.843Z,98793
2017-11-05T23:26:14.683Z,98791
2017-11-05T23:28:42.772Z,98797
2017-11-05T23:31:10.988Z,98808
2017-11-05T23:33:39.832Z,98811
2017-11-05T23:36:07.972Z,98811
2017-11-05T23:38:36.073Z,98802
2017-11-05T23:41:04.188Z,98822
2017-11-05T23:43:32.304Z,98826
2017-11-05T23:46:00.381Z,98828
2017-11-05T23:48:28.475Z,98831
2017-11-05T23:50:56.600Z,98826
2017-11-05T23:53:24.680Z,98829
2017-11-05T23:55:52.767Z,98835
2017-11-05T23:58:20.856Z,98836
